sensor_id;sensor_type;location;lat;lon;timestamp;P1;durP1;ratioP1;P2;durP2;ratioP2
29934;SDS011;19905;53.370;-6.314;2023-04-01T00:01:18;6.45;;;5.25;;
29934;SDS011;19905;53.370;-6.314;2023-04-01T00:03:46;7.45;;;4.88;;
29934;SDS011;19905;53.370;-6.314;2023-04-01T00:06:16;6.38;;;4.32;;
29934;SDS011;19905;53.370;-6.314;2023-04-01T00:08:47;8.55;;;5.00;;
29934;SDS011;19905;53.370;-6.314;2023-04-01T00:11:16;6.50;;;4.72;;
29934;SDS011;19905;53.370;-6.314;2023-04-01T00:13:46;6.82;;;5.10;;
29934;SDS011;19905;53.370;-6.314;2023-04-01T00:16:15;7.60;;;5.30;;
29934;SDS011;19905;53.370;-6.314;2023-04-01T00:18:48;7.35;;;4.85;;
29934;SDS011;19905;53.370;-6.314;2023-04-01T00:21:18;6.03;;;4.60;;
29934;SDS011;19905;53.370;-6.314;2023-04-01T00:23:50;7.90;;;5.20;;
29934;SDS011;19905;53.370;-6.314;2023-04-01T00:26:19;6.32;;;4.07;;
29934;SDS011;19905;53.370;-6.314;2023-04-01T00:28:49;7.25;;;5.00;;
29934;SDS011;19905;53.370;-6.314;2023-04-01T00:31:17;7.32;;;4.15;;
29934;SDS011;19905;53.370;-6.314;2023-04-01T00:33:47;9.50;;;4.40;;
29934;SDS011;19905;53.370;-6.314;2023-04-01T00:36:17;5.65;;;4.40;;
29934;SDS011;19905;53.370;-6.314;2023-04-01T00:38:49;6.45;;;4.47;;
29934;SDS011;19905;53.370;-6.314;2023-04-01T00:41:18;7.00;;;4.88;;
29934;SDS011;19905;53.370;-6.314;2023-04-01T00:43:48;6.78;;;4.80;;
29934;SDS011;19905;53.370;-6.314;2023-04-01T00:46:18;7.10;;;4.97;;
29934;SDS011;19905;53.370;-6.314;2023-04-01T00:48:48;8.23;;;5.70;;
29934;SDS011;19905;53.370;-6.314;2023-04-01T00:51:20;7.85;;;5.57;;
29934;SDS011;19905;53.370;-6.314;2023-04-01T00:53:54;7.28;;;5.13;;
29934;SDS011;19905;53.370;-6.314;2023-04-01T00:56:26;7.70;;;5.55;;
29934;SDS011;19905;53.370;-6.314;2023-04-01T00:58:59;7.72;;;5.28;;
29934;SDS011;19905;53.370;-6.314;2023-04-01T01:01:35;8.85;;;5.47;;
29934;SDS011;19905;53.370;-6.314;2023-04-01T01:04:04;10.30;;;6.45;;
29934;SDS011;19905;53.370;-6.314;2023-04-01T01:06:37;6.68;;;4.85;;
29934;SDS011;19905;53.370;-6.314;2023-04-01T01:09:18;8.07;;;5.18;;
29934;SDS011;19905;53.370;-6.314;2023-04-01T01:11:58;7.25;;;4.88;;
29934;SDS011;19905;53.370;-6.314;2023-04-01T01:14:39;8.35;;;4.82;;
29934;SDS011;19905;53.370;-6.314;2023-04-01T01:17:19;6.75;;;4.70;;
29934;SDS011;19905;53.370;-6.314;2023-04-01T01:20:03;8.18;;;4.68;;
29934;SDS011;19905;53.370;-6.314;2023-04-01T01:22:58;7.50;;;4.55;;
29934;SDS011;19905;53.370;-6.314;2023-04-01T01:25:46;6.03;;;4.22;;
29934;SDS011;19905;53.370;-6.314;2023-04-01T01:28:31;8.00;;;3.97;;
29934;SDS011;19905;53.370;-6.314;2023-04-01T01:31:12;5.00;;;3.80;;
29934;SDS011;19905;53.370;-6.314;2023-04-01T01:33:51;8.50;;;3.55;;
29934;SDS011;19905;53.370;-6.314;2023-04-01T01:36:31;6.10;;;4.28;;
29934;SDS011;19905;53.370;-6.314;2023-04-01T01:39:03;6.78;;;4.20;;
29934;SDS011;19905;53.370;-6.314;2023-04-01T01:41:33;5.95;;;3.70;;
29934;SDS011;19905;53.370;-6.314;2023-04-01T01:44:06;5.45;;;3.97;;
29934;SDS011;19905;53.370;-6.314;2023-04-01T01:46:38;7.70;;;4.35;;
29934;SDS011;19905;53.370;-6.314;2023-04-01T01:49:09;7.57;;;4.22;;
29934;SDS011;19905;53.370;-6.314;2023-04-01T01:51:43;8.88;;;4.38;;
29934;SDS011;19905;53.370;-6.314;2023-04-01T01:54:12;5.05;;;4.18;;
29934;SDS011;19905;53.370;-6.314;2023-04-01T01:56:41;6.70;;;4.40;;
29934;SDS011;19905;53.370;-6.314;2023-04-01T01:59:16;6.50;;;4.30;;
29934;SDS011;19905;53.370;-6.314;2023-04-01T02:01:50;6.97;;;4.22;;
29934;SDS011;19905;53.370;-6.314;2023-04-01T02:04:21;8.10;;;4.28;;
29934;SDS011;19905;53.370;-6.314;2023-04-01T02:06:53;7.60;;;4.32;;
29934;SDS011;19905;53.370;-6.314;2023-04-01T02:09:27;6.75;;;4.32;;
29934;SDS011;19905;53.370;-6.314;2023-04-01T02:11:56;6.93;;;4.05;;
29934;SDS011;19905;53.370;-6.314;2023-04-01T02:14:27;7.47;;;3.75;;
29934;SDS011;19905;53.370;-6.314;2023-04-01T02:17:02;6.43;;;4.15;;
29934;SDS011;19905;53.370;-6.314;2023-04-01T02:19:36;4.82;;;3.63;;
29934;SDS011;19905;53.370;-6.314;2023-04-01T02:22:10;6.07;;;4.20;;
29934;SDS011;19905;53.370;-6.314;2023-04-01T02:24:42;4.97;;;3.33;;
29934;SDS011;19905;53.370;-6.314;2023-04-01T02:27:12;5.80;;;4.10;;
29934;SDS011;19905;53.370;-6.314;2023-04-01T02:29:41;5.32;;;3.33;;
29934;SDS011;19905;53.370;-6.314;2023-04-01T02:32:10;6.22;;;3.83;;
29934;SDS011;19905;53.370;-6.314;2023-04-01T02:34:41;6.15;;;4.30;;
29934;SDS011;19905;53.370;-6.314;2023-04-01T02:37:13;7.22;;;4.30;;
29934;SDS011;19905;53.370;-6.314;2023-04-01T02:39:43;7.68;;;4.03;;
29934;SDS011;19905;53.370;-6.314;2023-04-01T02:42:12;7.32;;;4.18;;
29934;SDS011;19905;53.370;-6.314;2023-04-01T02:44:41;6.97;;;3.92;;
29934;SDS011;19905;53.370;-6.314;2023-04-01T02:47:10;5.95;;;3.88;;
29934;SDS011;19905;53.370;-6.314;2023-04-01T02:49:39;6.30;;;4.20;;
29934;SDS011;19905;53.370;-6.314;2023-04-01T02:52:08;6.35;;;4.10;;
29934;SDS011;19905;53.370;-6.314;2023-04-01T02:54:38;6.75;;;4.28;;
29934;SDS011;19905;53.370;-6.314;2023-04-01T02:57:07;6.47;;;3.92;;
29934;SDS011;19905;53.370;-6.314;2023-04-01T02:59:36;5.72;;;4.25;;
29934;SDS011;19905;53.370;-6.314;2023-04-01T03:02:04;5.43;;;3.72;;
29934;SDS011;19905;53.370;-6.314;2023-04-01T03:04:33;7.28;;;4.10;;
29934;SDS011;19905;53.370;-6.314;2023-04-01T03:07:02;8.38;;;3.92;;
29934;SDS011;19905;53.370;-6.314;2023-04-01T03:09:30;10.48;;;5.07;;
29934;SDS011;19905;53.370;-6.314;2023-04-01T03:12:01;6.00;;;4.47;;
29934;SDS011;19905;53.370;-6.314;2023-04-01T03:14:29;8.73;;;4.55;;
29934;SDS011;19905;53.370;-6.314;2023-04-01T03:16:58;7.85;;;4.00;;
29934;SDS011;19905;53.370;-6.314;2023-04-01T03:19:27;8.30;;;4.45;;
29934;SDS011;19905;53.370;-6.314;2023-04-01T03:21:56;5.97;;;3.72;;
29934;SDS011;19905;53.370;-6.314;2023-04-01T03:24:24;6.93;;;4.43;;
29934;SDS011;19905;53.370;-6.314;2023-04-01T03:26:53;9.10;;;4.07;;
29934;SDS011;19905;53.370;-6.314;2023-04-01T03:29:23;6.28;;;4.10;;
29934;SDS011;19905;53.370;-6.314;2023-04-01T03:31:51;6.30;;;4.03;;
29934;SDS011;19905;53.370;-6.314;2023-04-01T03:34:20;7.18;;;4.13;;
29934;SDS011;19905;53.370;-6.314;2023-04-01T03:36:49;6.10;;;3.78;;
29934;SDS011;19905;53.370;-6.314;2023-04-01T03:39:17;6.05;;;3.50;;
29934;SDS011;19905;53.370;-6.314;2023-04-01T03:41:46;8.15;;;3.88;;
29934;SDS011;19905;53.370;-6.314;2023-04-01T03:44:15;7.72;;;3.72;;
29934;SDS011;19905;53.370;-6.314;2023-04-01T03:46:45;7.82;;;3.90;;
29934;SDS011;19905;53.370;-6.314;2023-04-01T03:49:13;7.25;;;4.13;;
29934;SDS011;19905;53.370;-6.314;2023-04-01T03:51:42;7.85;;;3.17;;
29934;SDS011;19905;53.370;-6.314;2023-04-01T03:54:11;8.02;;;3.88;;
29934;SDS011;19905;53.370;-6.314;2023-04-01T03:56:40;5.97;;;3.45;;
29934;SDS011;19905;53.370;-6.314;2023-04-01T03:59:09;4.50;;;3.33;;
29934;SDS011;19905;53.370;-6.314;2023-04-01T04:01:37;5.32;;;3.58;;
29934;SDS011;19905;53.370;-6.314;2023-04-01T04:04:10;5.90;;;3.15;;
29934;SDS011;19905;53.370;-6.314;2023-04-01T04:06:40;6.03;;;3.25;;
29934;SDS011;19905;53.370;-6.314;2023-04-01T04:09:09;8.20;;;3.78;;
29934;SDS011;19905;53.370;-6.314;2023-04-01T04:11:37;5.95;;;3.65;;
29934;SDS011;19905;53.370;-6.314;2023-04-01T04:14:06;8.93;;;3.70;;
29934;SDS011;19905;53.370;-6.314;2023-04-01T04:16:35;8.45;;;3.67;;
29934;SDS011;19905;53.370;-6.314;2023-04-01T04:19:04;5.25;;;3.35;;
29934;SDS011;19905;53.370;-6.314;2023-04-01T04:21:34;6.82;;;3.90;;
29934;SDS011;19905;53.370;-6.314;2023-04-01T04:24:03;9.18;;;3.75;;
29934;SDS011;19905;53.370;-6.314;2023-04-01T04:26:32;7.05;;;3.45;;
29934;SDS011;19905;53.370;-6.314;2023-04-01T04:29:00;8.70;;;3.40;;
29934;SDS011;19905;53.370;-6.314;2023-04-01T04:31:30;6.95;;;3.45;;
29934;SDS011;19905;53.370;-6.314;2023-04-01T04:33:59;8.45;;;3.55;;
29934;SDS011;19905;53.370;-6.314;2023-04-01T04:36:28;6.40;;;3.17;;
29934;SDS011;19905;53.370;-6.314;2023-04-01T04:38:58;5.82;;;3.33;;
29934;SDS011;19905;53.370;-6.314;2023-04-01T04:41:28;8.32;;;3.60;;
29934;SDS011;19905;53.370;-6.314;2023-04-01T04:43:57;7.75;;;3.40;;
29934;SDS011;19905;53.370;-6.314;2023-04-01T04:46:26;7.78;;;4.00;;
29934;SDS011;19905;53.370;-6.314;2023-04-01T04:48:55;7.68;;;3.92;;
29934;SDS011;19905;53.370;-6.314;2023-04-01T04:51:23;8.52;;;3.95;;
29934;SDS011;19905;53.370;-6.314;2023-04-01T04:53:52;7.07;;;4.45;;
29934;SDS011;19905;53.370;-6.314;2023-04-01T04:56:22;6.78;;;3.78;;
29934;SDS011;19905;53.370;-6.314;2023-04-01T04:58:52;9.48;;;4.07;;
29934;SDS011;19905;53.370;-6.314;2023-04-01T05:01:21;8.50;;;3.67;;
29934;SDS011;19905;53.370;-6.314;2023-04-01T05:03:49;7.15;;;3.53;;
29934;SDS011;19905;53.370;-6.314;2023-04-01T05:06:18;8.02;;;2.92;;
29934;SDS011;19905;53.370;-6.314;2023-04-01T05:08:49;6.57;;;3.55;;
29934;SDS011;19905;53.370;-6.314;2023-04-01T05:11:18;10.10;;;3.72;;
29934;SDS011;19905;53.370;-6.314;2023-04-01T05:13:49;6.60;;;3.47;;
29934;SDS011;19905;53.370;-6.314;2023-04-01T05:16:18;7.30;;;3.35;;
29934;SDS011;19905;53.370;-6.314;2023-04-01T05:18:48;5.22;;;3.10;;
29934;SDS011;19905;53.370;-6.314;2023-04-01T05:21:17;6.32;;;3.40;;
29934;SDS011;19905;53.370;-6.314;2023-04-01T05:23:46;4.82;;;3.20;;
29934;SDS011;19905;53.370;-6.314;2023-04-01T05:26:14;6.70;;;3.20;;
29934;SDS011;19905;53.370;-6.314;2023-04-01T05:28:43;7.88;;;3.25;;
29934;SDS011;19905;53.370;-6.314;2023-04-01T05:31:14;10.35;;;3.67;;
29934;SDS011;19905;53.370;-6.314;2023-04-01T05:33:43;5.05;;;2.88;;
29934;SDS011;19905;53.370;-6.314;2023-04-01T05:36:13;4.18;;;3.10;;
29934;SDS011;19905;53.370;-6.314;2023-04-01T05:38:43;8.32;;;3.45;;
29934;SDS011;19905;53.370;-6.314;2023-04-01T05:41:12;5.05;;;3.22;;
29934;SDS011;19905;53.370;-6.314;2023-04-01T05:43:41;5.55;;;3.20;;
29934;SDS011;19905;53.370;-6.314;2023-04-01T05:46:10;7.18;;;2.90;;
29934;SDS011;19905;53.370;-6.314;2023-04-01T05:48:40;5.82;;;3.17;;
29934;SDS011;19905;53.370;-6.314;2023-04-01T05:51:12;4.43;;;2.50;;
29934;SDS011;19905;53.370;-6.314;2023-04-01T05:53:41;5.57;;;2.85;;
29934;SDS011;19905;53.370;-6.314;2023-04-01T05:56:10;6.82;;;2.50;;
29934;SDS011;19905;53.370;-6.314;2023-04-01T05:58:39;4.25;;;2.42;;
29934;SDS011;19905;53.370;-6.314;2023-04-01T06:01:08;6.07;;;3.30;;
29934;SDS011;19905;53.370;-6.314;2023-04-01T06:03:43;6.55;;;2.97;;
29934;SDS011;19905;53.370;-6.314;2023-04-01T06:06:13;4.95;;;2.83;;
29934;SDS011;19905;53.370;-6.314;2023-04-01T06:08:44;6.03;;;3.05;;
29934;SDS011;19905;53.370;-6.314;2023-04-01T06:11:17;6.05;;;3.00;;
29934;SDS011;19905;53.370;-6.314;2023-04-01T06:14:03;5.88;;;3.13;;
29934;SDS011;19905;53.370;-6.314;2023-04-01T06:16:44;6.20;;;3.10;;
29934;SDS011;19905;53.370;-6.314;2023-04-01T06:19:29;7.57;;;3.42;;
29934;SDS011;19905;53.370;-6.314;2023-04-01T06:25:05;5.93;;;3.30;;
29934;SDS011;19905;53.370;-6.314;2023-04-01T06:27:55;7.68;;;3.30;;
29934;SDS011;19905;53.370;-6.314;2023-04-01T06:30:37;7.30;;;3.40;;
29934;SDS011;19905;53.370;-6.314;2023-04-01T06:33:17;6.20;;;3.50;;
29934;SDS011;19905;53.370;-6.314;2023-04-01T06:36:02;6.47;;;3.75;;
29934;SDS011;19905;53.370;-6.314;2023-04-01T06:38:48;11.02;;;4.40;;
29934;SDS011;19905;53.370;-6.314;2023-04-01T06:41:32;13.80;;;4.82;;
29934;SDS011;19905;53.370;-6.314;2023-04-01T06:44:20;13.65;;;5.13;;
29934;SDS011;19905;53.370;-6.314;2023-04-01T06:46:57;17.30;;;5.22;;
29934;SDS011;19905;53.370;-6.314;2023-04-01T06:49:31;15.00;;;4.90;;
29934;SDS011;19905;53.370;-6.314;2023-04-01T06:52:12;11.68;;;4.85;;
29934;SDS011;19905;53.370;-6.314;2023-04-01T06:54:53;20.55;;;5.30;;
29934;SDS011;19905;53.370;-6.314;2023-04-01T06:57:29;16.95;;;5.32;;
29934;SDS011;19905;53.370;-6.314;2023-04-01T07:00:04;16.73;;;5.05;;
29934;SDS011;19905;53.370;-6.314;2023-04-01T07:02:42;16.33;;;5.70;;
29934;SDS011;19905;53.370;-6.314;2023-04-01T07:05:20;17.88;;;5.97;;
29934;SDS011;19905;53.370;-6.314;2023-04-01T07:07:53;19.88;;;6.10;;
29934;SDS011;19905;53.370;-6.314;2023-04-01T07:10:31;20.30;;;6.03;;
29934;SDS011;19905;53.370;-6.314;2023-04-01T07:13:04;24.77;;;6.07;;
29934;SDS011;19905;53.370;-6.314;2023-04-01T07:15:37;16.90;;;6.15;;
29934;SDS011;19905;53.370;-6.314;2023-04-01T07:18:10;22.35;;;6.78;;
29934;SDS011;19905;53.370;-6.314;2023-04-01T07:20:44;20.80;;;6.70;;
29934;SDS011;19905;53.370;-6.314;2023-04-01T07:23:17;22.83;;;6.93;;
29934;SDS011;19905;53.370;-6.314;2023-04-01T07:25:52;20.27;;;6.97;;
29934;SDS011;19905;53.370;-6.314;2023-04-01T07:28:26;28.08;;;7.25;;
29934;SDS011;19905;53.370;-6.314;2023-04-01T07:31:04;24.20;;;7.60;;
29934;SDS011;19905;53.370;-6.314;2023-04-01T07:33:47;27.77;;;7.20;;
29934;SDS011;19905;53.370;-6.314;2023-04-01T07:36:28;19.67;;;7.20;;
29934;SDS011;19905;53.370;-6.314;2023-04-01T07:39:11;26.35;;;7.78;;
29934;SDS011;19905;53.370;-6.314;2023-04-01T07:41:52;23.65;;;8.02;;
29934;SDS011;19905;53.370;-6.314;2023-04-01T07:44:32;27.60;;;7.57;;
29934;SDS011;19905;53.370;-6.314;2023-04-01T07:47:20;32.33;;;7.85;;
29934;SDS011;19905;53.370;-6.314;2023-04-01T07:50:17;24.35;;;7.35;;
29934;SDS011;19905;53.370;-6.314;2023-04-01T07:52:57;33.00;;;7.40;;
29934;SDS011;19905;53.370;-6.314;2023-04-01T07:55:39;23.92;;;7.95;;
29934;SDS011;19905;53.370;-6.314;2023-04-01T07:58:16;21.45;;;7.53;;
29934;SDS011;19905;53.370;-6.314;2023-04-01T08:00:54;30.70;;;8.45;;
29934;SDS011;19905;53.370;-6.314;2023-04-01T08:06:13;23.80;;;7.43;;
29934;SDS011;19905;53.370;-6.314;2023-04-01T08:08:51;23.05;;;7.50;;
29934;SDS011;19905;53.370;-6.314;2023-04-01T08:11:35;23.77;;;7.78;;
29934;SDS011;19905;53.370;-6.314;2023-04-01T08:14:26;20.05;;;6.90;;
29934;SDS011;19905;53.370;-6.314;2023-04-01T08:17:02;22.77;;;7.22;;
29934;SDS011;19905;53.370;-6.314;2023-04-01T08:19:39;18.58;;;7.13;;
29934;SDS011;19905;53.370;-6.314;2023-04-01T08:22:21;25.75;;;6.72;;
29934;SDS011;19905;53.370;-6.314;2023-04-01T08:24:58;23.73;;;6.90;;
29934;SDS011;19905;53.370;-6.314;2023-04-01T08:27:37;23.13;;;7.22;;
29934;SDS011;19905;53.370;-6.314;2023-04-01T08:30:15;19.70;;;7.07;;
29934;SDS011;19905;53.370;-6.314;2023-04-01T08:32:47;22.65;;;7.13;;
29934;SDS011;19905;53.370;-6.314;2023-04-01T08:35:24;21.92;;;7.50;;
29934;SDS011;19905;53.370;-6.314;2023-04-01T08:38:04;17.42;;;7.10;;
29934;SDS011;19905;53.370;-6.314;2023-04-01T08:40:58;25.15;;;7.47;;
29934;SDS011;19905;53.370;-6.314;2023-04-01T08:49:35;17.58;;;6.80;;
29934;SDS011;19905;53.370;-6.314;2023-04-01T08:52:31;14.98;;;6.82;;
29934;SDS011;19905;53.370;-6.314;2023-04-01T08:58:24;18.23;;;7.40;;
29934;SDS011;19905;53.370;-6.314;2023-04-01T09:01:20;19.20;;;6.28;;
29934;SDS011;19905;53.370;-6.314;2023-04-01T09:04:16;17.40;;;6.40;;
29934;SDS011;19905;53.370;-6.314;2023-04-01T09:07:01;16.48;;;6.15;;
29934;SDS011;19905;53.370;-6.314;2023-04-01T09:09:53;15.52;;;6.13;;
29934;SDS011;19905;53.370;-6.314;2023-04-01T09:12:55;16.13;;;6.10;;
29934;SDS011;19905;53.370;-6.314;2023-04-01T09:19:00;15.48;;;5.65;;
29934;SDS011;19905;53.370;-6.314;2023-04-01T09:21:57;13.35;;;5.28;;
29934;SDS011;19905;53.370;-6.314;2023-04-01T09:24:43;8.82;;;4.07;;
29934;SDS011;19905;53.370;-6.314;2023-04-01T09:27:27;6.20;;;3.30;;
29934;SDS011;19905;53.370;-6.314;2023-04-01T09:33:05;7.20;;;3.63;;
29934;SDS011;19905;53.370;-6.314;2023-04-01T09:36:02;5.93;;;3.30;;
29934;SDS011;19905;53.370;-6.314;2023-04-01T09:38:39;7.60;;;2.38;;
29934;SDS011;19905;53.370;-6.314;2023-04-01T09:41:23;5.40;;;2.20;;
29934;SDS011;19905;53.370;-6.314;2023-04-01T09:44:02;5.15;;;2.17;;
29934;SDS011;19905;53.370;-6.314;2023-04-01T09:46:35;8.68;;;2.20;;
29934;SDS011;19905;53.370;-6.314;2023-04-01T09:52:27;7.30;;;2.00;;
29934;SDS011;19905;53.370;-6.314;2023-04-01T09:55:14;3.38;;;1.58;;
29934;SDS011;19905;53.370;-6.314;2023-04-01T09:58:17;5.15;;;1.73;;
29934;SDS011;19905;53.370;-6.314;2023-04-01T10:01:25;2.85;;;1.30;;
29934;SDS011;19905;53.370;-6.314;2023-04-01T10:04:17;6.95;;;1.40;;
29934;SDS011;19905;53.370;-6.314;2023-04-01T10:07:14;3.72;;;1.00;;
29934;SDS011;19905;53.370;-6.314;2023-04-01T10:10:13;4.22;;;0.95;;
29934;SDS011;19905;53.370;-6.314;2023-04-01T10:13:17;4.68;;;1.00;;
29934;SDS011;19905;53.370;-6.314;2023-04-01T10:22:49;2.83;;;0.90;;
29934;SDS011;19905;53.370;-6.314;2023-04-01T10:25:51;3.63;;;1.10;;
29934;SDS011;19905;53.370;-6.314;2023-04-01T10:28:44;4.03;;;1.10;;
29934;SDS011;19905;53.370;-6.314;2023-04-01T10:31:47;2.90;;;0.80;;
29934;SDS011;19905;53.370;-6.314;2023-04-01T10:34:53;3.35;;;1.20;;
29934;SDS011;19905;53.370;-6.314;2023-04-01T10:40:53;4.22;;;1.00;;
29934;SDS011;19905;53.370;-6.314;2023-04-01T10:43:48;3.65;;;0.80;;
29934;SDS011;19905;53.370;-6.314;2023-04-01T10:52:51;2.30;;;0.85;;
29934;SDS011;19905;53.370;-6.314;2023-04-01T10:55:55;4.20;;;1.20;;
29934;SDS011;19905;53.370;-6.314;2023-04-01T11:01:50;3.70;;;1.33;;
29934;SDS011;19905;53.370;-6.314;2023-04-01T11:08:25;3.63;;;1.10;;
29934;SDS011;19905;53.370;-6.314;2023-04-01T11:11:35;3.95;;;1.33;;
29934;SDS011;19905;53.370;-6.314;2023-04-01T11:14:43;6.38;;;1.45;;
29934;SDS011;19905;53.370;-6.314;2023-04-01T11:17:42;5.30;;;1.20;;
29934;SDS011;19905;53.370;-6.314;2023-04-01T11:20:41;6.18;;;1.38;;
29934;SDS011;19905;53.370;-6.314;2023-04-01T11:23:40;6.78;;;1.42;;
29934;SDS011;19905;53.370;-6.314;2023-04-01T11:26:37;6.38;;;1.33;;
29934;SDS011;19905;53.370;-6.314;2023-04-01T11:29:26;4.47;;;1.23;;
29934;SDS011;19905;53.370;-6.314;2023-04-01T11:35:22;7.13;;;1.33;;
29934;SDS011;19905;53.370;-6.314;2023-04-01T11:38:06;5.95;;;1.77;;
29934;SDS011;19905;53.370;-6.314;2023-04-01T11:40:48;5.32;;;1.70;;
29934;SDS011;19905;53.370;-6.314;2023-04-01T11:43:28;8.05;;;1.40;;
29934;SDS011;19905;53.370;-6.314;2023-04-01T11:46:04;5.38;;;1.35;;
29934;SDS011;19905;53.370;-6.314;2023-04-01T11:48:59;7.65;;;1.77;;
29934;SDS011;19905;53.370;-6.314;2023-04-01T11:51:42;3.85;;;1.60;;
29934;SDS011;19905;53.370;-6.314;2023-04-01T11:54:37;6.03;;;1.95;;
29934;SDS011;19905;53.370;-6.314;2023-04-01T11:57:27;5.15;;;1.67;;
29934;SDS011;19905;53.370;-6.314;2023-04-01T12:03:18;3.65;;;1.45;;
29934;SDS011;19905;53.370;-6.314;2023-04-01T12:06:02;5.22;;;1.63;;
29934;SDS011;19905;53.370;-6.314;2023-04-01T12:08:38;4.10;;;1.30;;
29934;SDS011;19905;53.370;-6.314;2023-04-01T12:11:15;3.70;;;1.40;;
29934;SDS011;19905;53.370;-6.314;2023-04-01T12:13:52;3.55;;;1.50;;
29934;SDS011;19905;53.370;-6.314;2023-04-01T12:16:33;7.18;;;1.80;;
29934;SDS011;19905;53.370;-6.314;2023-04-01T12:19:15;8.02;;;1.92;;
29934;SDS011;19905;53.370;-6.314;2023-04-01T12:21:54;8.15;;;2.03;;
29934;SDS011;19905;53.370;-6.314;2023-04-01T12:24:39;7.47;;;1.70;;
29934;SDS011;19905;53.370;-6.314;2023-04-01T12:27:20;6.82;;;2.22;;
29934;SDS011;19905;53.370;-6.314;2023-04-01T12:30:22;5.82;;;1.80;;
29934;SDS011;19905;53.370;-6.314;2023-04-01T12:33:20;6.95;;;1.67;;
29934;SDS011;19905;53.370;-6.314;2023-04-01T12:36:18;4.88;;;1.50;;
29934;SDS011;19905;53.370;-6.314;2023-04-01T12:39:06;7.57;;;1.50;;
29934;SDS011;19905;53.370;-6.314;2023-04-01T12:41:52;4.93;;;1.77;;
29934;SDS011;19905;53.370;-6.314;2023-04-01T12:44:33;7.75;;;1.70;;
29934;SDS011;19905;53.370;-6.314;2023-04-01T12:47:19;4.68;;;1.70;;
29934;SDS011;19905;53.370;-6.314;2023-04-01T12:50:14;5.25;;;1.80;;
29934;SDS011;19905;53.370;-6.314;2023-04-01T12:52:58;9.48;;;2.22;;
29934;SDS011;19905;53.370;-6.314;2023-04-01T12:55:44;8.10;;;1.50;;
29934;SDS011;19905;53.370;-6.314;2023-04-01T12:58:21;5.68;;;1.75;;
29934;SDS011;19905;53.370;-6.314;2023-04-01T13:01:25;6.05;;;1.60;;
29934;SDS011;19905;53.370;-6.314;2023-04-01T13:10:11;5.85;;;1.40;;
29934;SDS011;19905;53.370;-6.314;2023-04-01T13:15:49;6.78;;;1.60;;
29934;SDS011;19905;53.370;-6.314;2023-04-01T13:18:25;5.65;;;1.40;;
29934;SDS011;19905;53.370;-6.314;2023-04-01T13:21:06;4.25;;;1.40;;
29934;SDS011;19905;53.370;-6.314;2023-04-01T13:23:46;7.07;;;1.70;;
29934;SDS011;19905;53.370;-6.314;2023-04-01T13:26:27;4.07;;;1.33;;
29934;SDS011;19905;53.370;-6.314;2023-04-01T13:29:04;6.95;;;1.52;;
29934;SDS011;19905;53.370;-6.314;2023-04-01T13:31:44;5.97;;;1.70;;
29934;SDS011;19905;53.370;-6.314;2023-04-01T13:34:30;10.68;;;1.95;;
29934;SDS011;19905;53.370;-6.314;2023-04-01T13:37:11;5.10;;;1.60;;
29934;SDS011;19905;53.370;-6.314;2023-04-01T13:39:56;7.28;;;1.85;;
29934;SDS011;19905;53.370;-6.314;2023-04-01T13:42:51;5.95;;;1.88;;
29934;SDS011;19905;53.370;-6.314;2023-04-01T13:45:26;7.95;;;1.63;;
29934;SDS011;19905;53.370;-6.314;2023-04-01T13:48:12;4.88;;;1.48;;
29934;SDS011;19905;53.370;-6.314;2023-04-01T14:00:18;4.90;;;1.58;;
29934;SDS011;19905;53.370;-6.314;2023-04-01T14:06:12;16.15;;;4.78;;
29934;SDS011;19905;53.370;-6.314;2023-04-01T14:11:30;11.25;;;2.40;;
29934;SDS011;19905;53.370;-6.314;2023-04-01T14:14:06;10.07;;;2.72;;
29934;SDS011;19905;53.370;-6.314;2023-04-01T14:17:00;27.60;;;6.97;;
29934;SDS011;19905;53.370;-6.314;2023-04-01T14:19:47;6.35;;;2.30;;
29934;SDS011;19905;53.370;-6.314;2023-04-01T14:22:31;5.45;;;1.95;;
29934;SDS011;19905;53.370;-6.314;2023-04-01T14:28:12;4.97;;;2.28;;
29934;SDS011;19905;53.370;-6.314;2023-04-01T14:30:51;8.25;;;2.50;;
29934;SDS011;19905;53.370;-6.314;2023-04-01T14:33:34;6.82;;;2.63;;
29934;SDS011;19905;53.370;-6.314;2023-04-01T14:36:28;8.43;;;3.05;;
29934;SDS011;19905;53.370;-6.314;2023-04-01T14:39:13;7.40;;;3.00;;
29934;SDS011;19905;53.370;-6.314;2023-04-01T14:41:53;7.90;;;2.90;;
29934;SDS011;19905;53.370;-6.314;2023-04-01T14:44:56;7.95;;;3.00;;
29934;SDS011;19905;53.370;-6.314;2023-04-01T14:47:47;14.70;;;3.85;;
29934;SDS011;19905;53.370;-6.314;2023-04-01T14:50:22;7.40;;;3.22;;
29934;SDS011;19905;53.370;-6.314;2023-04-01T14:52:57;9.40;;;3.67;;
29934;SDS011;19905;53.370;-6.314;2023-04-01T14:55:46;8.68;;;3.53;;
29934;SDS011;19905;53.370;-6.314;2023-04-01T14:58:18;11.48;;;3.90;;
29934;SDS011;19905;53.370;-6.314;2023-04-01T15:00:57;10.57;;;3.85;;
29934;SDS011;19905;53.370;-6.314;2023-04-01T15:03:36;11.38;;;4.43;;
29934;SDS011;19905;53.370;-6.314;2023-04-01T15:06:24;13.57;;;3.97;;
29934;SDS011;19905;53.370;-6.314;2023-04-01T15:09:10;9.82;;;3.42;;
29934;SDS011;19905;53.370;-6.314;2023-04-01T15:11:51;10.85;;;3.00;;
29934;SDS011;19905;53.370;-6.314;2023-04-01T15:14:40;8.30;;;2.78;;
29934;SDS011;19905;53.370;-6.314;2023-04-01T15:17:32;10.70;;;2.80;;
29934;SDS011;19905;53.370;-6.314;2023-04-01T15:20:19;9.95;;;3.10;;
29934;SDS011;19905;53.370;-6.314;2023-04-01T15:23:05;12.25;;;3.72;;
29934;SDS011;19905;53.370;-6.314;2023-04-01T15:25:47;8.90;;;2.95;;
29934;SDS011;19905;53.370;-6.314;2023-04-01T15:28:27;13.93;;;3.42;;
29934;SDS011;19905;53.370;-6.314;2023-04-01T15:31:04;8.30;;;2.80;;
29934;SDS011;19905;53.370;-6.314;2023-04-01T15:33:44;6.47;;;1.75;;
29934;SDS011;19905;53.370;-6.314;2023-04-01T15:36:26;6.78;;;2.38;;
29934;SDS011;19905;53.370;-6.314;2023-04-01T15:39:05;7.32;;;2.72;;
29934;SDS011;19905;53.370;-6.314;2023-04-01T15:42:04;5.43;;;1.20;;
29934;SDS011;19905;53.370;-6.314;2023-04-01T15:44:48;2.63;;;0.80;;
29934;SDS011;19905;53.370;-6.314;2023-04-01T15:47:29;2.97;;;1.02;;
29934;SDS011;19905;53.370;-6.314;2023-04-01T15:53:25;3.58;;;0.95;;
29934;SDS011;19905;53.370;-6.314;2023-04-01T15:56:28;3.92;;;1.13;;
29934;SDS011;19905;53.370;-6.314;2023-04-01T15:59:13;3.13;;;1.30;;
29934;SDS011;19905;53.370;-6.314;2023-04-01T16:01:58;6.20;;;2.58;;
29934;SDS011;19905;53.370;-6.314;2023-04-01T16:04:48;5.28;;;2.05;;
29934;SDS011;19905;53.370;-6.314;2023-04-01T16:07:28;9.75;;;2.60;;
29934;SDS011;19905;53.370;-6.314;2023-04-01T16:10:36;10.73;;;2.30;;
29934;SDS011;19905;53.370;-6.314;2023-04-01T16:13:24;3.92;;;2.22;;
29934;SDS011;19905;53.370;-6.314;2023-04-01T16:16:07;4.88;;;2.30;;
29934;SDS011;19905;53.370;-6.314;2023-04-01T16:18:56;3.88;;;1.27;;
29934;SDS011;19905;53.370;-6.314;2023-04-01T16:21:37;3.83;;;1.20;;
29934;SDS011;19905;53.370;-6.314;2023-04-01T16:24:17;4.72;;;1.00;;
29934;SDS011;19905;53.370;-6.314;2023-04-01T16:29:28;4.88;;;1.00;;
29934;SDS011;19905;53.370;-6.314;2023-04-01T16:32:18;3.60;;;0.95;;
29934;SDS011;19905;53.370;-6.314;2023-04-01T16:35:01;3.83;;;0.70;;
29934;SDS011;19905;53.370;-6.314;2023-04-01T16:37:43;4.22;;;0.82;;
29934;SDS011;19905;53.370;-6.314;2023-04-01T16:40:22;4.40;;;0.77;;
29934;SDS011;19905;53.370;-6.314;2023-04-01T16:43:06;1.30;;;0.70;;
29934;SDS011;19905;53.370;-6.314;2023-04-01T16:45:45;1.77;;;0.70;;
29934;SDS011;19905;53.370;-6.314;2023-04-01T16:48:21;3.08;;;0.80;;
29934;SDS011;19905;53.370;-6.314;2023-04-01T16:50:58;4.50;;;0.80;;
29934;SDS011;19905;53.370;-6.314;2023-04-01T16:53:34;3.15;;;1.00;;
29934;SDS011;19905;53.370;-6.314;2023-04-01T16:56:11;4.28;;;1.00;;
29934;SDS011;19905;53.370;-6.314;2023-04-01T16:58:56;5.75;;;1.20;;
29934;SDS011;19905;53.370;-6.314;2023-04-01T17:01:36;3.60;;;1.00;;
29934;SDS011;19905;53.370;-6.314;2023-04-01T17:04:14;4.50;;;1.30;;
29934;SDS011;19905;53.370;-6.314;2023-04-01T17:06:50;3.58;;;1.02;;